Time;durP1;ratioP1;P1;durP2;ratioP2;P2;SDS_P1;SDS_P2;PMS_P1;PMS_P2;Temp;Humidity;BMP_temperature;BMP_pressure;BME280_temperature;BME280_humidity;BME280_pressure;Samples;Min_cycle;Max_cycle;Signal;HPM_P1;HPM_P2
2021/08/26 00:00:07;;;;;;;11.18;3.00;;;;;;;14.08;93.26;101976.44;5013822;28;20044;-72
2021/08/26 00:08:00;;;;;;;12.85;2.60;;;;;;;14.12;93.66;101968.97;5013669;28;20065;-71
2021/08/26 00:10:26;;;;;;;11.50;2.67;;;;;;;14.14;93.68;101958.13;5013610;28;20426;-71
2021/08/26 00:12:52;;;;;;;14.77;3.42;;;;;;;14.10;93.13;101961.06;5012802;28;20109;-72
2021/08/26 00:15:17;;;;;;;11.93;2.85;;;;;;;14.04;92.29;101956.25;4995594;28;20057;-71
2021/08/26 00:17:45;;;;;;;11.30;2.78;;;;;;;13.99;92.57;101961.19;5012564;28;20037;-72
2021/08/26 00:20:11;;;;;;;9.85;2.50;;;;;;;13.96;92.13;101956.09;5013750;28;20057;-72
2021/08/26 00:22:36;;;;;;;9.90;2.83;;;;;;;13.94;92.19;101958.03;5012663;28;20446;-72
2021/08/26 00:25:03;;;;;;;11.48;2.67;;;;;;;13.93;91.58;101961.72;5013156;28;20386;-72
2021/08/26 00:27:29;;;;;;;8.80;2.67;;;;;;;13.96;90.88;101961.47;5013083;28;20033;-72
2021/08/26 00:29:54;;;;;;;12.05;3.40;;;;;;;14.02;90.22;101952.88;5012374;28;20704;-72
2021/08/26 00:32:19;;;;;;;19.15;4.00;;;;;;;14.07;89.32;101947.97;4995475;28;20129;-72
2021/08/26 00:34:45;;;;;;;14.57;3.55;;;;;;;14.11;89.01;101946.72;5012051;28;20033;-72
2021/08/26 00:37:10;;;;;;;18.30;3.72;;;;;;;14.16;88.77;101943.63;5012870;28;20455;-72
2021/08/26 00:39:36;;;;;;;17.23;3.38;;;;;;;14.19;88.40;101934.50;5012433;28;20026;-75
2021/08/26 00:42:03;;;;;;;19.52;3.45;;;;;;;14.25;87.94;101950.84;5012812;28;20042;-72
2021/08/26 00:44:28;;;;;;;18.42;3.80;;;;;;;14.27;87.58;101938.19;4995148;28;20121;-72
2021/08/26 00:46:54;;;;;;;12.68;4.00;;;;;;;14.28;86.67;101933.66;5011764;28;20033;-72
2021/08/26 00:49:19;;;;;;;11.68;3.70;;;;;;;14.32;86.31;101939.63;5012853;28;20062;-72
2021/08/26 00:51:45;;;;;;;18.73;3.75;;;;;;;14.34;85.82;101941.16;5012123;28;20037;-73
2021/08/26 00:54:11;;;;;;;14.00;3.90;;;;;;;14.35;84.75;101931.31;5012926;28;20066;-72
2021/08/26 00:56:37;;;;;;;10.48;3.50;;;;;;;14.40;82.60;101931.72;5012701;28;20052;-73
2021/08/26 00:59:05;;;;;;;15.13;4.18;;;;;;;14.40;82.18;101927.22;5011917;28;20030;-72
2021/08/26 01:01:51;;;;;;;16.85;3.65;;;;;;;14.43;81.76;101928.78;5012820;28;20470;-72
2021/08/26 01:04:48;;;;;;;14.60;4.03;;;;;;;14.43;81.47;101926.09;5012681;28;20025;-73
2021/08/26 01:07:30;;;;;;;14.50;3.60;;;;;;;14.45;80.92;101924.13;5012391;28;20072;-72
2021/08/26 01:10:07;;;;;;;17.63;3.75;;;;;;;14.46;79.68;101915.09;5011745;28;20446;-73
2021/08/26 01:12:34;;;;;;;15.00;4.10;;;;;;;14.46;79.25;101924.00;5012496;28;20112;-72
2021/08/26 01:15:00;;;;;;;12.07;3.42;;;;;;;14.48;79.44;101925.69;5011525;28;20430;-72
2021/08/26 01:17:28;;;;;;;14.63;3.97;;;;;;;14.48;79.11;101926.53;4994514;28;20096;-72
2021/08/26 01:19:54;;;;;;;12.43;3.15;;;;;;;14.48;79.07;101915.84;5011659;28;20116;-73
2021/08/26 01:22:23;;;;;;;16.08;3.85;;;;;;;14.49;78.72;101911.31;5012112;28;20038;-72
2021/08/26 01:24:55;;;;;;;9.88;3.67;;;;;;;14.51;78.51;101909.34;5011264;28;20060;-73
2021/08/26 01:27:21;;;;;;;11.38;3.17;;;;;;;14.54;76.46;101907.25;5012653;28;20032;-73
2021/08/26 01:29:48;;;;;;;13.70;3.08;;;;;;;14.55;75.88;101903.56;5015819;28;20038;-72
2021/08/26 01:32:21;;;;;;;17.38;4.00;;;;;;;14.54;75.72;101904.56;5016176;28;20037;-72
2021/08/26 01:34:48;;;;;;;12.95;2.70;;;;;;;14.55;74.62;101902.72;5015464;28;20030;-73
2021/08/26 01:37:18;;;;;;;13.88;3.67;;;;;;;14.56;75.66;101901.75;4998547;28;20121;-72
2021/08/26 01:39:50;;;;;;;14.38;3.47;;;;;;;14.57;75.86;101901.59;5015403;28;20367;-73
2021/08/26 01:42:16;;;;;;;14.57;3.92;;;;;;;14.56;76.99;101904.41;5015930;28;20453;-72
2021/08/26 01:44:42;;;;;;;18.60;4.20;;;;;;;14.52;78.44;101906.50;5015919;28;20073;-72
2021/08/26 01:47:10;;;;;;;12.88;3.58;;;;;;;14.50;79.44;101908.50;5015253;28;20044;-72
2021/08/26 01:49:37;;;;;;;21.58;5.30;;;;;;;14.48;78.81;101905.13;5015790;28;20085;-72
2021/08/26 01:52:03;;;;;;;17.02;3.92;;;;;;;14.48;78.52;101889.06;5015146;28;20072;-72
2021/08/26 01:54:28;;;;;;;23.20;4.72;;;;;;;14.49;79.01;101884.53;5015559;28;20057;-72
2021/08/26 01:56:54;;;;;;;21.65;4.85;;;;;;;14.49;77.31;101887.22;5014915;28;20100;-72
2021/08/26 01:59:20;;;;;;;29.38;4.95;;;;;;;14.46;78.28;101889.19;5015664;28;20072;-73
2021/08/26 02:01:45;;;;;;;18.77;4.78;;;;;;;14.45;76.55;101883.94;5015610;28;20034;-72
2021/08/26 02:04:11;;;;;;;26.75;5.03;;;;;;;14.45;76.34;101886.63;5015497;28;20034;-72
2021/08/26 02:06:36;;;;;;;21.63;5.20;;;;;;;14.45;75.30;101890.16;5015476;28;20037;-73
2021/08/26 02:09:02;;;;;;;18.15;4.07;;;;;;;14.45;75.39;101890.16;5014801;28;20037;-73
2021/08/26 02:11:27;;;;;;;16.85;4.22;;;;;;;14.47;74.10;101890.03;5015183;28;20038;-72
2021/08/26 02:13:52;;;;;;;19.50;3.92;;;;;;;14.46;74.84;101891.88;5014558;28;20092;-72
2021/08/26 02:16:18;;;;;;;17.17;4.60;;;;;;;14.44;75.22;101896.50;5015249;28;20117;-72
2021/08/26 02:18:44;;;;;;;24.80;4.35;;;;;;;14.42;76.18;101895.81;5014953;28;20038;-72
2021/08/26 02:21:10;;;;;;;27.45;4.78;;;;;;;14.40;76.63;101897.75;5014295;28;20414;-72
2021/08/26 02:23:36;;;;;;;25.45;4.82;;;;;;;14.38;77.98;101889.03;4997251;28;20042;-72
2021/08/26 02:26:01;;;;;;;27.23;4.80;;;;;;;14.34;77.97;101892.13;5014291;28;20030;-72
2021/08/26 02:28:26;;;;;;;22.50;5.22;;;;;;;14.30;78.78;101894.22;5013842;28;20038;-72
2021/08/26 02:30:52;;;;;;;29.52;5.53;;;;;;;14.24;79.03;101887.59;5014271;28;20038;-72
2021/08/26 02:33:17;;;;;;;19.80;4.72;;;;;;;14.23;78.71;101871.69;5015141;28;20034;-71
2021/08/26 02:35:43;;;;;;;24.48;4.70;;;;;;;14.23;77.37;101879.72;5015125;28;20487;-72
2021/08/26 02:38:08;;;;;;;17.73;4.40;;;;;;;14.20;76.25;101886.19;5014376;28;20112;-72
2021/08/26 02:40:33;;;;;;;16.92;3.78;;;;;;;14.21;74.98;101887.00;5014039;28;20454;-72
2021/08/26 02:42:59;;;;;;;16.85;3.92;;;;;;;14.21;74.42;101887.00;5014045;28;20033;-72
2021/08/26 02:45:24;;;;;;;18.13;3.85;;;;;;;14.20;73.44;101880.81;5014898;28;20100;-72
2021/08/26 02:47:50;;;;;;;15.45;3.88;;;;;;;14.19;73.51;101884.47;5014917;28;20030;-72
2021/08/26 02:50:15;;;;;;;16.55;3.53;;;;;;;14.18;72.58;101885.47;5013888;28;20383;-72
2021/08/26 02:52:40;;;;;;;22.27;3.63;;;;;;;14.18;72.42;101892.63;5014606;28;20141;-72
2021/08/26 02:55:06;;;;;;;21.67;3.40;;;;;;;14.18;73.84;101887.28;5013792;28;20384;-73
2021/08/26 02:57:31;;;;;;;17.42;3.63;;;;;;;14.18;72.77;101892.63;5014664;28;20034;-72
2021/08/26 02:59:57;;;;;;;18.15;4.35;;;;;;;14.18;72.24;101882.81;5013945;28;20063;-72
2021/08/26 03:02:22;;;;;;;18.33;4.07;;;;;;;14.17;72.50;101872.25;5014503;28;20065;-72
2021/08/26 03:04:47;;;;;;;16.48;3.40;;;;;;;14.15;72.15;101883.06;5014733;28;20041;-72
2021/08/26 03:07:13;;;;;;;13.32;3.35;;;;;;;14.16;71.69;101878.56;5014025;28;20034;-72
2021/08/26 03:09:38;;;;;;;12.18;3.05;;;;;;;14.13;71.32;101885.03;5014533;28;20058;-72
2021/08/26 03:12:05;;;;;;;14.65;2.72;;;;;;;14.11;71.16;101877.13;5013609;28;20120;-72
2021/08/26 03:14:31;;;;;;;15.45;3.03;;;;;;;14.10;71.71;101875.44;5014727;28;20061;-72
2021/08/26 03:16:57;;;;;;;11.95;3.05;;;;;;;14.09;72.13;101878.25;5013847;28;20029;-72
2021/08/26 03:19:22;;;;;;;16.45;3.05;;;;;;;14.09;71.51;101875.56;5014486;28;20034;-71
2021/08/26 03:21:47;;;;;;;10.75;2.70;;;;;;;14.08;71.20;101885.44;5014212;28;20026;-72
2021/08/26 03:24:13;;;;;;;20.13;2.95;;;;;;;14.08;71.10;101872.06;5013283;28;20033;-72
2021/08/26 03:26:38;;;;;;;14.90;2.90;;;;;;;14.08;72.34;101872.06;5014325;28;20462;-73
2021/08/26 03:29:03;;;;;;;18.40;3.28;;;;;;;14.09;72.36;101870.22;5013637;28;20458;-72
2021/08/26 03:31:29;;;;;;;20.42;3.88;;;;;;;14.07;73.23;101866.84;5013966;28;20558;-72
2021/08/26 03:33:54;;;;;;;15.13;2.83;;;;;;;14.06;73.90;101863.34;5013970;28;20441;-72
2021/08/26 03:36:19;;;;;;;14.85;3.40;;;;;;;14.06;73.74;101849.09;5013565;28;20092;-72
2021/08/26 03:38:45;;;;;;;24.15;3.20;;;;;;;14.06;73.69;101863.34;5014099;28;20029;-71
2021/08/26 03:41:10;;;;;;;16.30;4.13;;;;;;;14.06;73.09;101857.13;5013463;28;20165;-72
2021/08/26 03:43:35;;;;;;;19.23;3.60;;;;;;;14.08;73.71;101858.69;5014107;28;20084;-72
2021/08/26 03:46:01;;;;;;;15.02;3.67;;;;;;;14.11;72.88;101865.59;5013409;28;20033;-72
2021/08/26 03:48:26;;;;;;;14.73;3.15;;;;;;;14.15;72.14;101860.81;5013766;28;20076;-72
2021/08/26 03:50:51;;;;;;;14.60;3.38;;;;;;;14.19;72.38;101856.88;5013847;28;20084;-71
2021/08/26 03:53:17;;;;;;;21.13;4.13;;;;;;;14.23;72.28;101859.13;4995642;28;20057;-72
2021/08/26 03:55:42;;;;;;;20.58;3.55;;;;;;;14.23;72.90;101856.47;5013982;28;20167;-71
2021/08/26 03:58:08;;;;;;;13.25;3.10;;;;;;;14.23;72.82;101853.78;4995601;28;20470;-72
2021/08/26 04:00:33;;;;;;;14.40;3.03;;;;;;;14.25;72.64;101857.16;5013648;28;20034;-72
2021/08/26 04:02:58;;;;;;;18.45;3.45;;;;;;;14.27;73.65;101865.03;5013489;28;20494;-72
2021/08/26 04:05:24;;;;;;;17.15;3.35;;;;;;;14.28;73.92;101864.06;5012948;28;20493;-72
2021/08/26 04:07:49;;;;;;;24.98;3.65;;;;;;;14.31;74.11;101860.28;5013565;28;20429;-71
2021/08/26 04:10:14;;;;;;;18.75;3.60;;;;;;;14.32;74.20;101853.94;5013308;28;20065;-72
2021/08/26 04:12:40;;;;;;;17.33;2.97;;;;;;;14.34;74.18;101860.84;5013328;28;20026;-72
2021/08/26 04:15:06;;;;;;;16.30;3.15;;;;;;;14.35;71.93;101857.19;5012860;28;20474;-72
2021/08/26 04:17:31;;;;;;;19.67;4.00;;;;;;;14.36;71.98;101858.88;5013568;28;20041;-71
2021/08/26 04:19:57;;;;;;;16.65;3.22;;;;;;;14.38;71.13;101856.06;5013935;28;20030;-71
2021/08/26 04:22:22;;;;;;;16.83;3.35;;;;;;;14.38;71.20;101853.38;4995175;28;20391;-71
2021/08/26 04:24:47;;;;;;;21.48;4.03;;;;;;;14.40;72.12;101856.75;5013426;28;20033;-71
2021/08/26 04:27:13;;;;;;;15.05;3.20;;;;;;;14.37;71.38;101857.88;5012634;28;20030;-72
2021/08/26 04:29:38;;;;;;;13.77;3.38;;;;;;;14.37;70.77;101855.19;4996250;28;20069;-71
2021/08/26 04:32:04;;;;;;;18.35;3.65;;;;;;;14.39;71.41;101869.31;5013341;28;20034;-71
2021/08/26 04:34:29;;;;;;;13.50;2.72;;;;;;;14.38;71.19;101864.94;4996151;28;20065;-71
2021/08/26 04:36:55;;;;;;;12.25;2.40;;;;;;;14.38;70.83;101861.41;5013172;28;20478;-71
2021/08/26 04:39:20;;;;;;;14.20;3.20;;;;;;;14.37;71.05;101857.88;4995052;28;20037;-71
2021/08/26 04:41:45;;;;;;;15.82;2.80;;;;;;;14.34;70.60;101844.78;5013363;28;20034;-71
2021/08/26 04:44:11;;;;;;;14.00;2.85;;;;;;;14.32;70.74;101844.06;5012401;28;20112;-71
2021/08/26 04:46:36;;;;;;;17.30;3.38;;;;;;;14.31;70.90;101853.09;5012972;28;20382;-71
2021/08/26 04:49:02;;;;;;;17.15;3.38;;;;;;;14.27;71.42;101846.31;5012569;28;20065;-71
2021/08/26 04:51:27;;;;;;;13.18;3.03;;;;;;;14.24;71.54;101843.91;5012634;28;20348;-71
2021/08/26 04:53:53;;;;;;;13.95;3.05;;;;;;;14.23;72.08;101848.44;5013100;28;20061;-71
2021/08/26 04:56:18;;;;;;;13.75;3.38;;;;;;;14.24;72.26;101841.22;5011811;28;20042;-71
2021/08/26 04:58:43;;;;;;;15.38;2.67;;;;;;;14.24;71.31;101846.59;5012937;28;20030;-71
2021/08/26 05:01:09;;;;;;;15.48;2.33;;;;;;;14.26;71.18;101848.16;5012242;28;20030;-72
2021/08/26 05:03:34;;;;;;;19.40;3.13;;;;;;;14.29;70.30;101847.03;5012257;28;20044;-71
2021/08/26 05:06:03;;;;;;;12.75;2.58;;;;;;;14.31;70.84;101842.38;5013117;28;20378;-71
2021/08/26 05:08:28;;;;;;;9.07;2.10;;;;;;;14.32;70.20;101838.72;5011768;28;20662;-71
2021/08/26 05:10:54;;;;;;;9.80;2.38;;;;;;;14.32;70.92;101841.41;5012413;28;20034;-71
2021/08/26 05:13:19;;;;;;;12.27;2.50;;;;;;;14.35;71.23;101851.00;5011999;28;20053;-71
2021/08/26 05:15:44;;;;;;;16.42;2.88;;;;;;;14.34;71.45;101847.44;5012917;28;20120;-71
2021/08/26 05:18:10;;;;;;;16.52;3.28;;;;;;;14.34;72.05;101849.28;5012341;28;20038;-72
2021/08/26 05:20:35;;;;;;;14.60;3.47;;;;;;;14.35;71.50;101851.81;5012899;28;20042;-70
2021/08/26 05:23:01;;;;;;;12.65;2.67;;;;;;;14.37;72.45;101849.84;5012700;28;20030;-70
2021/08/26 05:25:26;;;;;;;10.93;3.13;;;;;;;14.40;70.88;101849.56;5012037;28;20509;-71
2021/08/26 05:27:52;;;;;;;17.65;3.40;;;;;;;14.43;71.15;101853.81;5012200;28;20042;-70
2021/08/26 05:30:17;;;;;;;16.33;3.20;;;;;;;14.44;70.85;101853.66;5011766;28;20033;-70
2021/08/26 05:32:43;;;;;;;17.42;2.97;;;;;;;14.46;68.68;101846.34;5012265;28;20038;-70
2021/08/26 05:35:09;;;;;;;15.95;2.30;;;;;;;14.51;67.82;101850.41;5012156;28;20501;-70
2021/08/26 05:37:34;;;;;;;7.30;2.08;;;;;;;14.52;68.62;101841.41;5011778;28;20108;-71
2021/08/26 05:39:59;;;;;;;9.07;2.55;;;;;;;14.54;68.28;101836.75;5012484;28;20561;-71
2021/08/26 05:42:26;;;;;;;8.18;2.10;;;;;;;14.56;67.49;101837.47;5012100;28;20038;-71
2021/08/26 05:44:51;;;;;;;8.98;1.90;;;;;;;14.57;68.42;101841.81;5012350;28;20140;-71
2021/08/26 05:47:17;;;;;;;9.80;2.03;;;;;;;14.58;68.04;101841.69;5011767;28;20105;-71
2021/08/26 05:49:42;;;;;;;11.02;2.70;;;;;;;14.56;69.06;101838.31;5012386;28;20077;-71
2021/08/26 05:52:08;;;;;;;11.93;2.28;;;;;;;14.55;69.63;101847.31;5012269;28;20034;-71
2021/08/26 05:54:33;;;;;;;8.70;2.35;;;;;;;14.54;69.92;101845.66;5011512;28;20341;-71
2021/08/26 05:56:59;;;;;;;11.77;2.30;;;;;;;14.55;71.09;101841.13;5012351;28;20533;-71
2021/08/26 05:59:25;;;;;;;14.10;2.55;;;;;;;14.56;71.41;101845.50;5011629;28;20038;-71
2021/08/26 06:01:51;;;;;;;11.13;2.45;;;;;;;14.57;71.90;101852.53;5012209;28;20104;-71
2021/08/26 06:04:17;;;;;;;17.80;2.70;;;;;;;14.57;71.57;101840.00;4993666;28;20038;-71
2021/08/26 06:06:42;;;;;;;13.85;2.75;;;;;;;14.61;71.47;101835.22;5012015;28;20037;-71
2021/08/26 06:09:07;;;;;;;12.65;2.83;;;;;;;14.65;71.42;101839.31;5012066;28;20041;-71
2021/08/26 06:11:33;;;;;;;14.18;2.85;;;;;;;14.68;70.14;101841.72;5011492;28;20037;-72
2021/08/26 06:13:58;;;;;;;12.60;2.25;;;;;;;14.71;70.04;101840.59;5013906;28;20442;-71
2021/08/26 06:16:24;;;;;;;10.93;2.38;;;;;;;14.76;70.38;101847.22;5015131;28;20057;-72
2021/08/26 06:18:49;;;;;;;7.03;2.25;;;;;;;14.80;70.85;101843.25;5015927;28;20466;-71
2021/08/26 06:21:16;;;;;;;10.13;2.50;;;;;;;14.83;70.59;101844.81;5015431;28;20064;-71
2021/08/26 06:23:42;;;;;;;15.68;2.58;;;;;;;14.85;70.63;101852.72;5015028;28;20378;-71
2021/08/26 06:26:07;;;;;;;16.38;3.60;;;;;;;14.87;71.48;101846.22;5015451;28;20030;-71
2021/08/26 06:28:32;;;;;;;12.13;2.88;;;;;;;14.84;71.67;101851.00;5014618;28;20044;-71
2021/08/26 06:30:58;;;;;;;14.13;2.47;;;;;;;14.85;70.19;101842.81;5015504;28;20136;-71
2021/08/26 06:33:23;;;;;;;12.13;2.10;;;;;;;14.92;70.76;101843.13;5014827;28;20080;-72
2021/08/26 06:35:49;;;;;;;12.90;2.72;;;;;;;14.97;70.77;101838.16;5015225;28;20060;-71
2021/08/26 06:38:14;;;;;;;13.38;2.47;;;;;;;14.98;69.02;101840.69;5015137;28;20083;-71
2021/08/26 06:40:39;;;;;;;10.30;2.17;;;;;;;14.99;67.95;101842.41;5014341;28;20152;-71
2021/08/26 06:43:04;;;;;;;7.97;2.20;;;;;;;15.01;67.63;101839.56;5015568;28;20038;-71
2021/08/26 06:45:30;;;;;;;16.02;2.90;;;;;;;14.99;68.57;101846.91;5014480;28;20041;-71
2021/08/26 06:47:55;;;;;;;10.25;2.65;;;;;;;14.99;69.64;101865.69;4997779;28;20034;-71
2021/08/26 06:50:21;;;;;;;13.32;3.08;;;;;;;14.89;71.16;101867.53;5014876;28;20069;-72
2021/08/26 06:52:46;;;;;;;10.10;3.15;;;;;;;14.77;72.90;101870.34;5015027;28;20026;-71
2021/08/26 06:55:12;;;;;;;10.60;2.63;;;;;;;14.72;72.40;101864.56;5015076;28;20055;-71
2021/08/26 06:57:37;;;;;;;9.70;2.80;;;;;;;14.67;72.11;101864.13;5014442;28;20371;-71
2021/08/26 07:00:05;;;;;;;12.90;2.35;;;;;;;14.70;71.72;101858.50;5014857;28;20042;-71
2021/08/26 07:02:30;;;;;;;15.60;3.03;;;;;;;14.77;70.79;101848.06;5014266;28;20034;-71
2021/08/26 07:04:55;;;;;;;12.35;2.60;;;;;;;14.90;70.83;101853.97;4997461;28;20042;-71
2021/08/26 07:07:21;;;;;;;13.18;3.45;;;;;;;15.02;70.33;101848.44;5014773;28;20030;-72
2021/08/26 07:09:46;;;;;;;12.82;2.60;;;;;;;15.18;70.33;101848.69;4996647;28;20125;-71
2021/08/26 07:12:11;;;;;;;15.18;3.08;;;;;;;15.40;69.70;101863.59;5014826;28;20100;-71
2021/08/26 07:14:37;;;;;;;10.95;3.30;;;;;;;15.60;68.72;101859.03;5013782;28;20037;-72
2021/08/26 07:17:02;;;;;;;12.43;2.63;;;;;;;15.68;69.21;101871.69;5014698;28;20030;-72
2021/08/26 07:19:28;;;;;;;10.65;2.85;;;;;;;15.57;68.42;101875.41;5013922;28;20116;-72
2021/08/26 07:21:53;;;;;;;8.77;2.67;;;;;;;15.55;68.56;101871.19;5014466;28;20484;-71
2021/08/26 07:24:18;;;;;;;8.75;2.10;;;;;;;15.47;68.92;101893.38;5014500;28;20077;-71
2021/08/26 07:26:44;;;;;;;7.05;1.85;;;;;;;15.37;73.40;101893.38;5013059;28;20025;-72
2021/08/26 07:29:10;;;;;;;11.57;1.98;;;;;;;15.08;75.50;101885.41;5014526;28;20063;-72
2021/08/26 07:31:35;;;;;;;12.45;2.20;;;;;;;14.93;77.98;101874.28;5013556;28;20069;-72
2021/08/26 07:34:01;;;;;;;8.77;1.90;;;;;;;14.90;78.43;101877.22;5014112;28;20034;-72
2021/08/26 07:36:26;;;;;;;9.07;1.83;;;;;;;14.94;78.69;101867.91;4996423;28;20057;-72
2021/08/26 07:38:52;;;;;;;7.22;1.50;;;;;;;15.00;77.33;101856.63;5013902;28;20084;-72
2021/08/26 07:41:17;;;;;;;6.55;1.58;;;;;;;15.16;78.23;101856.88;5014120;28;20025;-72
2021/08/26 07:43:43;;;;;;;10.70;3.55;;;;;;;15.39;76.88;101866.41;5013384;28;20052;-72
2021/08/26 07:46:08;;;;;;;6.78;1.58;;;;;;;15.67;73.82;101857.44;5014401;28;20379;-72
2021/08/26 07:48:34;;;;;;;5.75;1.55;;;;;;;16.00;72.31;101849.81;5013314;28;20105;-72
2021/08/26 07:51:03;;;;;;;8.90;1.52;;;;;;;16.39;69.74;101854.06;5014010;28;20034;-72
2021/08/26 07:53:33;;;;;;;6.28;1.38;;;;;;;16.78;69.29;101864.53;5014136;28;20067;-72
2021/08/26 07:55:59;;;;;;;7.85;1.45;;;;;;;16.78;66.44;101859.16;5013307;28;20347;-71
2021/08/26 07:58:27;;;;;;;9.32;1.83;;;;;;;16.70;67.26;101869.81;5013702;28;20034;-72
2021/08/26 08:00:53;;;;;;;2.95;1.20;;;;;;;16.60;68.37;101869.03;4995620;28;20041;-72
2021/08/26 08:03:18;;;;;;;8.98;1.98;;;;;;;16.54;67.99;101860.63;5013658;28;20379;-72
2021/08/26 08:05:44;;;;;;;7.53;1.75;;;;;;;16.51;68.93;101858.25;5013071;28;20114;-72
2021/08/26 08:08:09;;;;;;;10.02;1.80;;;;;;;16.49;68.63;101864.75;5013568;28;20037;-72
2021/08/26 08:10:34;;;;;;;8.07;1.80;;;;;;;16.54;69.02;101867.81;5012646;28;20026;-72
2021/08/26 08:13:00;;;;;;;8.40;1.85;;;;;;;16.56;69.01;101861.28;5013650;28;20062;-72
2021/08/26 08:15:25;;;;;;;9.32;1.50;;;;;;;16.56;68.19;101860.47;5013270;28;20042;-72
2021/08/26 08:17:50;;;;;;;6.25;1.52;;;;;;;16.52;68.63;101851.84;5012949;28;20041;-72
2021/08/26 08:20:16;;;;;;;5.80;1.48;;;;;;;16.84;68.43;101852.28;5013572;28;20105;-71
2021/08/26 08:22:41;;;;;;;7.55;1.67;;;;;;;17.31;67.98;101859.22;5012871;28;20046;-71
2021/08/26 08:25:07;;;;;;;6.80;1.83;;;;;;;17.15;68.20;101868.00;5013870;28;20057;-72
2021/08/26 08:27:33;;;;;;;8.55;2.13;;;;;;;16.48;72.59;101885.41;5013411;28;20136;-72
2021/08/26 08:29:58;;;;;;;7.05;1.73;;;;;;;15.68;73.99;101874.38;5013054;28;20474;-71
2021/08/26 08:32:24;;;;;;;6.85;1.83;;;;;;;15.04;77.21;101870.59;5014323;28;20037;-72
2021/08/26 08:34:49;;;;;;;7.53;2.15;;;;;;;14.83;78.88;101852.00;5013155;28;20113;-72
2021/08/26 08:37:14;;;;;;;4.97;1.35;;;;;;;14.79;77.33;101852.31;5012026;28;20053;-71
2021/08/26 08:39:40;;;;;;;6.32;1.80;;;;;;;14.96;79.28;101847.22;5012375;28;20045;-73
2021/08/26 08:42:06;;;;;;;9.35;2.08;;;;;;;15.19;78.42;101850.38;5013010;28;20041;-71
2021/08/26 08:44:31;;;;;;;5.30;1.88;;;;;;;15.41;76.99;101845.69;5013052;28;20085;-72
2021/08/26 08:46:58;;;;;;;10.93;2.30;;;;;;;15.77;76.30;101846.66;5012487;28;20036;-72
2021/08/26 08:49:25;;;;;;;6.82;1.83;;;;;;;16.12;75.72;101854.97;5012992;28;20053;-72
2021/08/26 08:51:52;;;;;;;12.38;2.17;;;;;;;16.34;75.36;101845.63;5012413;28;20466;-72
2021/08/26 08:54:19;;;;;;;8.75;2.17;;;;;;;16.62;74.81;101849.09;5012738;28;20036;-72
2021/08/26 08:56:45;;;;;;;15.07;2.47;;;;;;;16.81;73.47;101849.91;5011816;28;20081;-71
2021/08/26 08:59:11;;;;;;;11.98;2.78;;;;;;;16.79;74.04;101846.53;5012882;28;20123;-71
2021/08/26 09:01:36;;;;;;;13.75;2.92;;;;;;;16.78;74.23;101855.59;5012753;28;20193;-71
2021/08/26 09:04:02;;;;;;;14.18;2.88;;;;;;;16.72;72.98;101847.16;4994664;28;20034;-71
2021/08/26 09:06:42;;;;;;;13.73;3.00;;;;;;;16.69;72.54;101855.53;5012693;28;20034;-71
2021/08/26 09:09:08;;;;;;;7.68;2.63;;;;;;;16.80;69.79;101856.31;5012786;28;20034;-71
2021/08/26 09:11:34;;;;;;;11.30;2.50;;;;;;;16.89;69.66;101864.28;4995157;28;20359;-70
2021/08/26 09:14:11;;;;;;;9.88;2.85;;;;;;;17.02;69.77;101855.00;5012422;28;20056;-72
2021/08/26 09:16:40;;;;;;;7.63;2.28;;;;;;;17.23;68.92;101852.78;5011450;28;20030;-71
2021/08/26 09:19:15;;;;;;;13.13;2.78;;;;;;;17.44;65.41;101841.63;5012652;28;20041;-71
2021/08/26 09:21:40;;;;;;;12.57;2.80;;;;;;;17.52;68.09;101845.38;5012091;28;20038;-72
2021/08/26 09:24:06;;;;;;;10.25;2.53;;;;;;;17.52;65.64;101853.44;5012165;28;20041;-71
2021/08/26 09:26:31;;;;;;;13.07;3.00;;;;;;;17.56;65.75;101861.03;5012584;28;20064;-72
2021/08/26 09:29:03;;;;;;;7.63;2.53;;;;;;;17.26;66.65;101852.47;5011704;28;20398;-72
2021/08/26 09:31:30;;;;;;;10.52;3.00;;;;;;;17.03;67.94;101852.16;5012429;28;20029;-72
2021/08/26 09:34:10;;;;;;;10.02;2.30;;;;;;;16.88;69.83;101848.31;5011941;28;20050;-71
2021/08/26 09:36:37;;;;;;;6.28;2.20;;;;;;;16.98;69.99;101848.25;5012579;28;20038;-71
2021/08/26 09:39:04;;;;;;;9.38;2.67;;;;;;;17.21;68.27;101845.88;5011843;28;20033;-71
2021/08/26 09:41:44;;;;;;;12.65;2.97;;;;;;;17.44;69.25;101838.94;5012220;28;20033;-72
2021/08/26 09:44:21;;;;;;;13.75;3.45;;;;;;;17.58;67.29;101842.88;5012536;28;20073;-71
2021/08/26 09:46:49;;;;;;;13.02;2.50;;;;;;;17.69;68.35;101849.84;5011948;28;20030;-72
2021/08/26 09:49:17;;;;;;;13.10;2.65;;;;;;;17.82;67.61;101846.69;5014583;28;20121;-72
2021/08/26 09:51:44;;;;;;;14.35;3.00;;;;;;;18.01;67.56;101842.06;5016091;28;20060;-71
2021/08/26 09:54:32;;;;;;;12.55;3.08;;;;;;;18.32;62.96;101843.16;5015775;28;20513;-71
2021/08/26 09:56:59;;;;;;;13.63;3.40;;;;;;;18.60;61.57;101833.91;5015157;28;20376;-71
2021/08/26 09:59:44;;;;;;;13.50;3.20;;;;;;;18.77;61.62;101835.59;5015855;28;20402;-72
2021/08/26 10:02:11;;;;;;;14.52;3.50;;;;;;;19.12;60.66;101838.13;5016106;28;20030;-72
2021/08/26 10:04:37;;;;;;;15.10;3.20;;;;;;;19.09;60.14;101833.06;5016325;28;20061;-71
2021/08/26 10:07:03;;;;;;;15.07;3.90;;;;;;;19.10;60.53;101845.56;5015295;28;20041;-72
2021/08/26 10:09:30;;;;;;;14.70;3.40;;;;;;;18.75;59.83;101836.78;5016078;28;20030;-72
2021/08/26 10:11:56;;;;;;;14.20;3.80;;;;;;;18.71;60.63;101830.06;5015275;28;20026;-71
2021/08/26 10:14:21;;;;;;;14.32;3.55;;;;;;;18.63;60.86;101841.66;5016292;28;20103;-71
2021/08/26 10:16:47;;;;;;;11.48;2.88;;;;;;;18.54;60.16;101838.13;5015472;28;20038;-72
2021/08/26 10:19:15;;;;;;;17.55;3.85;;;;;;;18.57;60.08;101845.03;5015763;28;20058;-71
2021/08/26 10:21:43;;;;;;;16.73;4.28;;;;;;;18.41;61.87;101841.31;5015729;28;20084;-71
2021/08/26 10:24:09;;;;;;;16.58;4.28;;;;;;;18.41;61.91;101832.41;5014581;28;20119;-71
2021/08/26 10:26:36;;;;;;;25.00;4.70;;;;;;;18.44;62.02;101838.28;5015782;28;20482;-71
2021/08/26 10:29:06;;;;;;;16.85;4.40;;;;;;;18.38;62.39;101846.22;5014867;28;20076;-71
2021/08/26 10:31:34;;;;;;;16.35;3.78;;;;;;;18.36;62.17;101838.25;5015308;28;20478;-71
2021/08/26 10:34:13;;;;;;;14.45;4.22;;;;;;;18.31;61.43;101836.06;5014795;28;20033;-71
2021/08/26 10:36:55;;;;;;;19.00;4.88;;;;;;;18.32;62.11;101843.16;5015516;28;20029;-71
2021/08/26 10:39:32;;;;;;;13.48;4.47;;;;;;;18.54;62.00;101839.97;5015368;28;20038;-71
2021/08/26 10:42:28;;;;;;;17.10;4.22;;;;;;;18.80;60.75;101846.03;5014798;28;20026;-72
2021/08/26 10:45:01;;;;;;;12.80;4.32;;;;;;;18.87;60.29;101854.34;5014594;28;20037;-72
2021/08/26 10:47:52;;;;;;;17.00;4.15;;;;;;;18.98;60.02;101843.19;5015370;28;20030;-72
2021/08/26 10:50:19;;;;;;;13.65;3.72;;;;;;;18.76;61.07;101851.94;5015182;28;20041;-71
2021/08/26 10:53:04;;;;;;;16.13;4.43;;;;;;;18.37;62.91;101850.72;5014712;28;20493;-72
2021/08/26 10:55:34;;;;;;;13.25;3.97;;;;;;;18.35;62.00;101851.91;5014867;28;20053;-71
2021/08/26 10:58:18;;;;;;;15.15;3.72;;;;;;;18.33;61.46;101850.22;5014400;28;20042;-72
2021/08/26 11:00:45;;;;;;;11.93;3.10;;;;;;;18.62;59.22;101851.59;4996485;28;20041;-71
2021/08/26 11:03:35;;;;;;;13.18;3.83;;;;;;;18.90;58.07;101850.44;5014332;28;20034;-71
2021/08/26 11:06:24;;;;;;;13.32;3.35;;;;;;;19.13;58.54;101850.59;5014238;28;20447;-71
2021/08/26 11:08:52;;;;;;;12.57;3.35;;;;;;;19.50;57.12;101846.47;5014962;28;20042;-71
2021/08/26 11:11:27;;;;;;;16.27;3.75;;;;;;;19.74;57.48;101857.16;5014176;28;20053;-71
2021/08/26 11:14:12;;;;;;;12.98;3.65;;;;;;;20.01;56.50;101849.63;5014811;28;20033;-71
2021/08/26 11:16:41;;;;;;;11.80;3.47;;;;;;;19.88;56.62;101858.34;5003796;28;20050;-71
2021/08/26 11:19:12;;;;;;;11.55;2.97;;;;;;;19.70;55.60;101853.13;5013781;28;20034;-71
2021/08/26 11:21:44;;;;;;;12.27;3.20;;;;;;;19.54;55.62;101850.47;5014759;28;20536;-71
2021/08/26 11:24:29;;;;;;;14.40;3.17;;;;;;;19.77;54.36;101842.47;5014110;28;20042;-71